Time;durP1;ratioP1;P1;durP2;ratioP2;P2;SDS_P1;SDS_P2;PMS_P1;PMS_P2;Temp;Humidity;BMP_temperature;BMP_pressure;BME280_temperature;BME280_humidity;BME280_pressure;Samples;Min_cycle;Max_cycle;Signal;HPM_P1;HPM_P2
2021/03/02 00:00:10;;;;;;;355.70;157.38;;;2.20;99.90;;;;;;5113576;28;20208;-70
2021/03/02 00:02:41;;;;;;;116.35;53.65;;;2.30;99.90;;;;;;5100068;28;20226;-71
2021/03/02 00:05:09;;;;;;;104.22;47.97;;;2.20;99.90;;;;;;5113624;28;20390;-70
2021/03/02 00:07:36;;;;;;;92.00;41.53;;;2.20;99.90;;;;;;5099945;28;20396;-70
2021/03/02 00:10:10;;;;;;;129.77;47.15;;;2.30;99.90;;;;;;5099878;28;20229;-70
2021/03/02 00:12:39;;;;;;;107.40;49.20;;;2.40;99.90;;;;;;5099559;28;20438;-69
2021/03/02 00:15:07;;;;;;;112.28;47.00;;;2.50;99.90;;;;;;5099506;28;20230;-69
2021/03/02 00:17:47;;;;;;;111.03;48.92;;;2.20;99.90;;;;;;5099789;28;20206;-70
2021/03/02 00:20:19;;;;;;;100.00;45.40;;;2.10;99.90;;;;;;5099511;28;20210;-69
2021/03/02 00:23:03;;;;;;;98.38;45.92;;;2.00;99.90;;;;;;5100302;28;20206;-71
2021/03/02 00:25:33;;;;;;;95.05;42.53;;;2.00;99.90;;;;;;5099082;28;20206;-71
2021/03/02 00:28:07;;;;;;;117.30;57.40;;;1.90;99.90;;;;;;5100228;28;20213;-71
2021/03/02 00:30:35;;;;;;;99.18;44.10;;;2.00;99.90;;;;;;5097835;28;20206;-71
2021/03/02 00:33:04;;;;;;;111.80;47.63;;;1.90;99.90;;;;;;5110389;28;20486;-71
2021/03/02 00:35:32;;;;;;;104.38;41.60;;;2.00;99.90;;;;;;5110172;28;20613;-71
2021/03/02 00:38:00;;;;;;;100.78;43.22;;;2.10;99.90;;;;;;5099995;28;20198;-72
2021/03/02 00:40:27;;;;;;;102.45;46.00;;;2.00;99.90;;;;;;5089817;28;20564;-70
2021/03/02 00:42:53;;;;;;;113.50;45.10;;;2.00;99.90;;;;;;5095822;28;20216;-71
2021/03/02 00:45:20;;;;;;;121.88;55.60;;;2.00;99.90;;;;;;5100160;28;20225;-71
2021/03/02 00:47:52;;;;;;;129.30;55.47;;;2.10;99.90;;;;;;5085309;28;20206;-73
2021/03/02 00:50:21;;;;;;;101.30;49.25;;;2.10;99.90;;;;;;5099580;28;20464;-71
2021/03/02 00:52:48;;;;;;;124.47;45.83;;;2.00;99.90;;;;;;5113608;28;20205;-71
2021/03/02 00:55:16;;;;;;;117.22;48.15;;;1.90;99.90;;;;;;5098654;28;20415;-70
2021/03/02 00:57:42;;;;;;;109.57;48.05;;;2.00;99.90;;;;;;5099717;28;20313;-71
2021/03/02 01:00:09;;;;;;;105.00;43.75;;;2.00;99.90;;;;;;5099872;28;20202;-72
2021/03/02 01:02:37;;;;;;;98.80;43.00;;;1.90;99.90;;;;;;5098830;28;20271;-71
2021/03/02 01:05:06;;;;;;;97.03;42.15;;;2.30;99.90;;;;;;5099381;28;20198;-72
2021/03/02 01:07:33;;;;;;;109.55;44.33;;;2.10;99.90;;;;;;5099454;28;20198;-72
2021/03/02 01:09:59;;;;;;;110.90;43.80;;;1.90;99.90;;;;;;5098778;28;20206;-72
2021/03/02 01:12:28;;;;;;;120.68;48.50;;;2.00;99.90;;;;;;5098840;28;20301;-72
2021/03/02 01:14:56;;;;;;;104.88;43.33;;;1.70;99.90;;;;;;5098121;28;20222;-72
2021/03/02 01:17:23;;;;;;;131.70;48.97;;;1.80;99.90;;;;;;5097450;28;20256;-74
2021/03/02 01:19:50;;;;;;;126.80;46.97;;;1.70;99.90;;;;;;5098089;28;20206;-73
2021/03/02 01:22:17;;;;;;;111.22;45.70;;;1.80;99.90;;;;;;5097266;28;20257;-72
2021/03/02 01:24:44;;;;;;;125.45;47.15;;;2.30;99.90;;;;;;5098355;28;20277;-73
2021/03/02 01:27:11;;;;;;;108.60;46.97;;;1.90;99.90;;;;;;5097050;28;20234;-73
2021/03/02 01:29:38;;;;;;;104.80;45.25;;;2.00;99.90;;;;;;5098789;28;20273;-73
2021/03/02 01:32:05;;;;;;;106.65;42.83;;;2.10;99.90;;;;;;5098894;28;20206;-75
2021/03/02 01:34:33;;;;;;;118.93;44.63;;;2.20;99.90;;;;;;5098539;28;20256;-72
2021/03/02 01:37:00;;;;;;;134.80;50.05;;;2.00;99.90;;;;;;5097743;28;20202;-74
2021/03/02 01:39:28;;;;;;;157.57;50.47;;;1.90;99.90;;;;;;5098509;28;20217;-74
2021/03/02 01:41:56;;;;;;;165.70;55.15;;;1.80;99.90;;;;;;5098562;28;20255;-72
2021/03/02 01:44:25;;;;;;;154.55;51.45;;;1.80;99.90;;;;;;5097100;28;20229;-73
2021/03/02 01:46:52;;;;;;;149.07;52.47;;;1.90;99.90;;;;;;5098264;28;20206;-73
2021/03/02 01:49:20;;;;;;;141.45;47.67;;;1.80;99.90;;;;;;5098409;28;20228;-72
2021/03/02 01:51:47;;;;;;;122.10;46.30;;;1.80;99.90;;;;;;5097519;28;20206;-71
2021/03/02 01:54:15;;;;;;;139.65;50.42;;;1.80;99.90;;;;;;5085232;28;20321;-73
2021/03/02 01:56:42;;;;;;;124.13;49.88;;;1.70;99.90;;;;;;5098221;28;20206;-73
2021/03/02 01:59:11;;;;;;;139.30;53.20;;;1.70;99.90;;;;;;5097977;28;20202;-73
2021/03/02 02:01:39;;;;;;;126.63;45.80;;;1.70;99.90;;;;;;5098264;28;20289;-72
2021/03/02 02:04:17;;;;;;;141.98;51.47;;;1.70;99.90;;;;;;5097176;28;20230;-72
2021/03/02 02:06:46;;;;;;;168.10;51.08;;;1.60;99.90;;;;;;5096811;28;20516;-71
2021/03/02 02:09:22;;;;;;;163.25;54.22;;;1.50;99.90;;;;;;5097601;28;20202;-71
2021/03/02 02:12:36;;;;;;;154.60;53.53;;;1.60;99.90;;;;;;5097581;28;20222;-72
2021/03/02 02:15:08;;;;;;;147.30;51.53;;;1.50;99.90;;;;;;5086132;28;20444;-71
2021/03/02 02:17:55;;;;;;;149.85;53.33;;;1.40;99.90;;;;;;5097638;28;20221;-71
2021/03/02 02:20:48;;;;;;;150.65;55.45;;;1.40;99.90;;;;;;5096834;28;20408;-71
2021/03/02 02:23:28;;;;;;;150.68;54.30;;;1.30;99.90;;;;;;5076435;28;20502;-72
2021/03/02 02:26:00;;;;;;;162.93;54.67;;;1.40;99.90;;;;;;5108934;28;20220;-72
2021/03/02 02:28:29;;;;;;;172.15;53.92;;;1.40;99.90;;;;;;5098396;28;20497;-73
2021/03/02 02:30:58;;;;;;;143.35;51.33;;;1.30;99.90;;;;;;5080372;28;20220;-73
2021/03/02 02:33:32;;;;;;;127.53;50.83;;;1.30;99.90;;;;;;5081810;28;20241;-72
2021/03/02 02:36:01;;;;;;;122.55;53.33;;;1.30;99.90;;;;;;5079734;28;20213;-72
2021/03/02 02:38:30;;;;;;;146.07;51.83;;;1.90;99.90;;;;;;5097409;28;20251;-72
2021/03/02 02:40:58;;;;;;;147.80;56.72;;;1.40;99.90;;;;;;5085491;28;20539;-72
2021/03/02 02:43:26;;;;;;;141.85;50.75;;;1.40;99.90;;;;;;5095790;28;20206;-71
2021/03/02 02:45:53;;;;;;;164.68;50.92;;;1.50;99.90;;;;;;5098031;28;20427;-72
2021/03/02 02:48:21;;;;;;;181.48;57.42;;;;;;;;;;5097455;28;20504;-72
2021/03/02 02:50:52;;;;;;;139.80;53.90;;;1.50;99.90;;;;;;5098322;28;20271;-72
2021/03/02 02:53:19;;;;;;;164.27;57.45;;;1.50;99.90;;;;;;5096762;28;20230;-71
2021/03/02 02:55:50;;;;;;;156.95;54.88;;;1.50;99.90;;;;;;5097423;28;20519;-70
2021/03/02 02:58:22;;;;;;;164.05;57.28;;;1.50;99.90;;;;;;5096880;28;20210;-72
2021/03/02 03:00:50;;;;;;;162.23;57.15;;;1.80;99.90;;;;;;5095690;28;20395;-70
2021/03/02 03:03:20;;;;;;;237.43;65.38;;;1.70;99.90;;;;;;5089872;28;20223;-72
2021/03/02 03:05:52;;;;;;;211.27;60.97;;;1.60;99.90;;;;;;5089516;28;20202;-71
2021/03/02 03:08:25;;;;;;;250.70;65.70;;;1.60;99.90;;;;;;5081052;28;20211;-71
2021/03/02 03:10:53;;;;;;;327.73;72.85;;;1.50;99.90;;;;;;5075596;28;20513;-71
2021/03/02 03:13:23;;;;;;;209.23;60.15;;;1.50;99.90;;;;;;5079655;28;20245;-73
2021/03/02 03:16:01;;;;;;;303.08;68.50;;;1.50;99.90;;;;;;5077405;28;20207;-73
2021/03/02 03:18:33;;;;;;;326.83;72.78;;;1.60;99.90;;;;;;5079005;28;20208;-73
2021/03/02 03:21:00;;;;;;;320.05;69.65;;;1.70;99.90;;;;;;5080639;28;20297;-72
2021/03/02 03:23:28;;;;;;;291.90;62.35;;;1.60;99.90;;;;;;5092863;28;20209;-72
2021/03/02 03:25:54;;;;;;;221.23;60.47;;;1.50;99.90;;;;;;5082405;28;20210;-72
2021/03/02 03:28:23;;;;;;;174.43;55.40;;;1.50;99.90;;;;;;5082160;28;20509;-71
2021/03/02 03:30:50;;;;;;;342.85;66.47;;;1.50;99.90;;;;;;5083931;28;20203;-73
2021/03/02 03:33:19;;;;;;;192.45;58.45;;;1.50;99.90;;;;;;5084002;28;20277;-73
2021/03/02 03:35:46;;;;;;;277.25;63.28;;;1.60;99.90;;;;;;5086907;28;20297;-72
2021/03/02 03:38:13;;;;;;;211.10;58.50;;;1.60;99.90;;;;;;5098730;28;20203;-72
2021/03/02 03:40:40;;;;;;;254.70;60.38;;;1.70;99.90;;;;;;5100711;28;20209;-73
2021/03/02 03:43:07;;;;;;;157.98;50.53;;;1.70;99.90;;;;;;5100582;28;20264;-72
2021/03/02 03:45:34;;;;;;;167.80;50.35;;;2.20;99.90;;;;;;5101198;28;20228;-74
2021/03/02 03:48:01;;;;;;;219.93;53.35;;;1.70;99.90;;;;;;5099257;28;20512;-74
2021/03/02 03:50:28;;;;;;;171.30;46.90;;;1.50;99.90;;;;;;5100493;28;20688;-73
2021/03/02 03:53:00;;;;;;;211.65;52.08;;;1.40;99.90;;;;;;5101070;27;20780;-74
2021/03/02 03:55:33;;;;;;;174.07;44.88;;;1.40;99.90;;;;;;5100201;28;20240;-74
2021/03/02 03:58:01;;;;;;;136.18;49.92;;;1.40;99.90;;;;;;5099432;28;20232;-74
2021/03/02 04:00:28;;;;;;;161.32;45.47;;;1.40;99.90;;;;;;5100065;28;20215;-73
2021/03/02 04:02:55;;;;;;;152.82;46.15;;;1.30;99.90;;;;;;5105953;28;20271;-74
2021/03/02 04:05:22;;;;;;;127.53;39.70;;;1.20;99.90;;;;;;5096789;28;20765;-74
2021/03/02 04:07:50;;;;;;;138.68;43.33;;;1.40;99.90;;;;;;5089580;28;20214;-74
2021/03/02 04:10:16;;;;;;;119.68;46.05;;;1.50;99.90;;;;;;5087076;28;20404;-74
2021/03/02 04:12:45;;;;;;;184.38;44.05;;;1.20;99.90;;;;;;5086566;28;20258;-75
2021/03/02 04:15:28;;;;;;;114.72;38.58;;;1.10;99.90;;;;;;5086836;28;20288;-75
2021/03/02 04:17:57;;;;;;;167.55;47.38;;;1.10;99.90;;;;;;5091739;28;20210;-74
2021/03/02 04:20:24;;;;;;;178.80;47.85;;;1.00;99.90;;;;;;5104344;28;20206;-74
2021/03/02 04:22:51;;;;;;;168.82;50.08;;;1.00;99.90;;;;;;5093804;28;20202;-71
2021/03/02 04:25:18;;;;;;;173.38;47.10;;;0.90;99.90;;;;;;5092230;28;20403;-73
2021/03/02 04:27:45;;;;;;;142.32;45.63;;;0.90;99.90;;;;;;5087379;28;20689;-72
2021/03/02 04:30:12;;;;;;;181.52;53.47;;;1.10;99.90;;;;;;5082554;28;20274;-72
2021/03/02 04:32:38;;;;;;;160.18;47.95;;;1.20;99.90;;;;;;5087823;28;20202;-72
2021/03/02 04:35:06;;;;;;;218.75;49.15;;;1.20;99.90;;;;;;5092071;28;20258;-73
2021/03/02 04:37:34;;;;;;;166.75;51.55;;;1.40;99.90;;;;;;5099736;28;20464;-74
2021/03/02 04:40:01;;;;;;;248.10;60.65;;;1.10;99.90;;;;;;5085241;28;20202;-72
2021/03/02 04:42:27;;;;;;;282.98;53.65;;;1.00;99.90;;;;;;5088925;28;20211;-72
2021/03/02 04:44:54;;;;;;;293.17;62.40;;;1.20;99.90;;;;;;5095049;28;20210;-72
2021/03/02 04:47:20;;;;;;;266.30;56.28;;;1.20;99.90;;;;;;5099302;28;20226;-72
2021/03/02 04:49:47;;;;;;;246.15;54.72;;;0.90;99.90;;;;;;5099867;28;20248;-72
2021/03/02 04:52:15;;;;;;;198.70;45.10;;;0.90;99.90;;;;;;5099598;28;20209;-73
2021/03/02 04:54:42;;;;;;;254.93;50.47;;;0.90;99.90;;;;;;5098686;28;20229;-72
2021/03/02 04:57:08;;;;;;;218.77;49.75;;;0.90;99.90;;;;;;5099115;28;20317;-72
2021/03/02 04:59:35;;;;;;;221.32;55.25;;;0.90;99.90;;;;;;5099589;28;20213;-73
2021/03/02 05:02:01;;;;;;;198.98;51.80;;;0.90;99.90;;;;;;5099422;28;20269;-73
2021/03/02 05:04:28;;;;;;;207.98;47.38;;;0.80;99.90;;;;;;5097629;28;20214;-73
2021/03/02 05:06:55;;;;;;;313.30;57.35;;;0.80;99.90;;;;;;5096506;28;20207;-73
2021/03/02 05:09:21;;;;;;;176.55;46.33;;;0.80;99.90;;;;;;5080519;28;20230;-72
2021/03/02 05:11:48;;;;;;;132.48;43.33;;;0.70;99.90;;;;;;5098028;28;20202;-71
2021/03/02 05:14:14;;;;;;;179.90;55.58;;;0.70;99.90;;;;;;5079023;28;20226;-71
2021/03/02 05:16:41;;;;;;;220.63;54.58;;;0.70;99.90;;;;;;5090864;28;20207;-71
2021/03/02 05:19:07;;;;;;;189.07;56.10;;;0.80;99.90;;;;;;5094349;28;20207;-72
2021/03/02 05:21:34;;;;;;;178.27;51.58;;;1.00;99.90;;;;;;5095528;28;20224;-72
2021/03/02 05:24:01;;;;;;;231.05;51.35;;;1.70;99.90;;;;;;5087719;28;20253;-73
2021/03/02 05:26:27;;;;;;;156.50;49.03;;;0.70;99.90;;;;;;5086764;28;20210;-72
2021/03/02 05:28:57;;;;;;;217.65;53.50;;;0.70;99.90;;;;;;5090277;28;20423;-71
2021/03/02 05:31:24;;;;;;;209.45;53.92;;;0.60;99.90;;;;;;5083712;28;20509;-72
2021/03/02 05:33:51;;;;;;;147.57;43.08;;;1.70;99.90;;;;;;5088036;28;20407;-72
2021/03/02 05:36:17;;;;;;;205.13;48.60;;;0.60;99.90;;;;;;5094250;28;20247;-72
2021/03/02 05:38:44;;;;;;;146.85;46.92;;;-0.20;99.90;;;;;;5098454;28;20207;-72
2021/03/02 05:41:11;;;;;;;242.68;55.15;;;0.80;99.90;;;;;;5098139;28;20504;-71
2021/03/02 05:43:42;;;;;;;170.32;48.72;;;0.70;99.90;;;;;;5096493;28;20436;-72
2021/03/02 05:46:23;;;;;;;211.85;51.83;;;1.10;99.90;;;;;;5096652;28;20209;-71
2021/03/02 05:48:50;;;;;;;180.05;48.42;;;1.00;99.90;;;;;;5086143;28;20209;-72
2021/03/02 05:51:19;;;;;;;137.95;43.30;;;1.10;99.90;;;;;;5091328;28;20223;-71
2021/03/02 05:53:46;;;;;;;230.57;52.60;;;1.20;99.90;;;;;;5085911;28;20257;-71
2021/03/02 05:56:15;;;;;;;161.27;45.72;;;1.20;99.90;;;;;;5097004;28;20209;-70
2021/03/02 05:58:41;;;;;;;155.05;50.60;;;1.00;99.90;;;;;;5087037;28;20203;-71
2021/03/02 06:01:08;;;;;;;177.15;48.05;;;0.80;99.90;;;;;;5089408;28;20248;-69
2021/03/02 06:03:36;;;;;;;210.13;54.45;;;1.00;99.90;;;;;;5087443;28;20237;-68
2021/03/02 06:06:05;;;;;;;253.07;53.80;;;1.20;99.90;;;;;;5088782;28;20203;-69
2021/03/02 06:08:32;;;;;;;179.52;48.58;;;1.30;99.90;;;;;;5088474;28;20550;-70
2021/03/02 06:11:24;;;;;;;304.13;58.95;;;1.20;99.90;;;;;;5091114;28;20202;-71
2021/03/02 06:13:51;;;;;;;370.48;58.42;;;1.10;99.90;;;;;;5092434;28;20774;-71
2021/03/02 06:16:18;;;;;;;309.20;62.42;;;1.40;99.90;;;;;;5091336;28;20209;-71
2021/03/02 06:18:50;;;;;;;209.73;50.83;;;1.20;99.90;;;;;;5090841;28;20210;-71
2021/03/02 06:21:17;;;;;;;314.48;54.20;;;1.20;99.90;;;;;;5087097;28;20298;-72
2021/03/02 06:23:48;;;;;;;265.60;55.75;;;1.20;99.90;;;;;;5105352;28;20518;-72
2021/03/02 06:26:27;;;;;;;162.73;43.85;;;1.60;99.90;;;;;;5101454;28;20206;-71
2021/03/02 06:28:55;;;;;;;100.57;38.15;;;2.00;99.90;;;;;;5101635;28;20198;-73
2021/03/02 06:31:34;;;;;;;185.25;46.47;;;1.90;99.90;;;;;;5107523;28;20358;-75
2021/03/02 06:34:05;;;;;;;107.65;38.75;;;2.00;99.90;;;;;;5103547;28;20225;-75
2021/03/02 06:36:32;;;;;;;80.70;36.05;;;2.20;99.90;;;;;;5103892;28;20213;-74
2021/03/02 06:39:18;;;;;;;87.72;38.58;;;2.40;99.90;;;;;;5104970;28;20214;-75
2021/03/02 06:41:45;;;;;;;176.20;42.38;;;2.30;99.90;;;;;;5084378;28;20214;-75
2021/03/02 06:44:13;;;;;;;80.45;36.50;;;2.60;99.90;;;;;;5091047;28;20211;-75
2021/03/02 06:46:40;;;;;;;135.05;38.95;;;2.30;99.90;;;;;;5091619;28;20248;-76
2021/03/02 06:49:09;;;;;;;117.00;36.25;;;2.10;99.90;;;;;;5089693;28;20394;-76
2021/03/02 06:51:37;;;;;;;222.60;49.40;;;1.80;99.90;;;;;;5085800;28;20213;-75
2021/03/02 06:54:06;;;;;;;166.18;43.17;;;1.90;99.90;;;;;;5082679;28;20234;-74
2021/03/02 06:56:36;;;;;;;87.38;40.83;;;2.30;99.90;;;;;;5076654;28;20202;-73
2021/03/02 06:59:19;;;;;;;85.50;45.40;;;2.60;99.90;;;;;;5087840;28;20201;-76
2021/03/02 07:01:47;;;;;;;100.25;34.28;;;2.80;99.90;;;;;;5093534;28;20214;-74
2021/03/02 07:04:21;;;;;;;124.82;41.20;;;2.70;99.90;;;;;;5093373;28;20222;-75
2021/03/02 07:06:54;;;;;;;133.02;40.92;;;2.40;99.90;;;;;;5086627;28;20186;-74
2021/03/02 07:09:22;;;;;;;86.13;35.40;;;2.40;99.90;;;;;;5082435;28;20223;-75
2021/03/02 07:11:50;;;;;;;79.65;35.15;;;2.60;99.90;;;;;;5094031;28;20499;-74
2021/03/02 07:14:17;;;;;;;155.98;42.03;;;2.80;99.90;;;;;;5083742;28;20227;-75
2021/03/02 07:16:46;;;;;;;73.07;34.78;;;2.70;99.90;;;;;;5088993;28;20413;-73
2021/03/02 07:19:17;;;;;;;66.28;33.63;;;3.00;99.90;;;;;;5081733;28;20250;-73
2021/03/02 07:21:46;;;;;;;166.15;38.92;;;3.20;99.90;;;;;;5083086;28;20278;-72
2021/03/02 07:24:14;;;;;;;135.52;41.33;;;3.30;99.90;;;;;;5082961;28;20214;-73
2021/03/02 07:26:46;;;;;;;107.68;34.90;;;3.20;99.90;;;;;;5085629;28;20279;-73
2021/03/02 07:29:13;;;;;;;72.68;30.65;;;3.40;99.90;;;;;;5083990;28;20532;-72
2021/03/02 07:31:41;;;;;;;55.63;30.88;;;3.60;99.90;;;;;;5081403;28;20207;-71
2021/03/02 07:34:11;;;;;;;56.30;32.55;;;3.90;99.90;;;;;;5084313;28;20266;-71
2021/03/02 07:36:41;;;;;;;59.30;32.20;;;4.00;99.90;;;;;;5081696;28;20204;-72
2021/03/02 07:39:13;;;;;;;64.97;31.38;;;3.60;99.80;;;;;;5093022;28;20219;-72
2021/03/02 07:41:40;;;;;;;54.20;31.38;;;3.30;99.90;;;;;;5084600;28;20422;-70
2021/03/02 07:44:08;;;;;;;105.53;38.92;;;3.40;99.90;;;;;;5087607;28;20219;-70
2021/03/02 07:46:37;;;;;;;99.57;34.45;;;3.70;99.90;;;;;;5100802;28;20291;-71
2021/03/02 07:49:32;;;;;;;122.80;34.65;;;4.00;99.90;;;;;;5103428;28;20282;-70
2021/03/02 07:52:02;;;;;;;61.47;28.83;;;3.90;99.10;;;;;;5104256;28;20294;-70
2021/03/02 07:54:33;;;;;;;88.65;30.83;;;3.70;99.60;;;;;;5104958;28;21326;-71
2021/03/02 07:57:15;;;;;;;61.22;30.48;;;3.60;98.90;;;;;;5101806;28;20212;-71
2021/03/02 07:59:43;;;;;;;68.20;35.28;;;3.80;99.90;;;;;;5089556;28;20215;-70
2021/03/02 08:02:20;;;;;;;63.78;35.42;;;4.20;99.60;;;;;;5085575;28;20205;-70
2021/03/02 08:04:48;;;;;;;62.47;33.20;;;4.60;99.60;;;;;;5094122;28;20630;-70
2021/03/02 08:07:18;;;;;;;58.97;31.48;;;4.50;98.70;;;;;;5086879;28;20395;-70
2021/03/02 08:09:46;;;;;;;51.33;30.48;;;4.20;99.10;;;;;;5091415;28;20407;-70
2021/03/02 08:12:30;;;;;;;50.58;30.30;;;4.40;99.10;;;;;;5089976;28;20254;-71
2021/03/02 08:14:59;;;;;;;39.83;25.52;;;5.00;98.30;;;;;;5091965;28;20218;-70
2021/03/02 08:17:28;;;;;;;46.78;29.02;;;5.30;97.10;;;;;;5088177;28;20457;-71
2021/03/02 08:20:05;;;;;;;42.95;27.23;;;5.60;97.20;;;;;;5094808;28;20255;-71
2021/03/02 08:22:35;;;;;;;41.90;26.63;;;5.80;95.60;;;;;;5092593;28;20234;-71
2021/03/02 08:25:24;;;;;;;51.58;30.42;;;6.20;95.70;;;;;;5096934;28;20279;-71
2021/03/02 08:27:59;;;;;;;52.40;28.83;;;6.40;94.40;;;;;;5087607;28;20242;-70
2021/03/02 08:30:38;;;;;;;54.53;31.77;;;5.90;94.80;;;;;;5099511;28;20272;-69
2021/03/02 08:33:10;;;;;;;49.63;31.10;;;5.60;95.40;;;;;;5086887;28;20206;-71
2021/03/02 08:35:42;;;;;;;45.38;28.40;;;5.70;94.40;;;;;;5090501;28;20282;-72
2021/03/02 08:38:14;;;;;;;59.03;31.30;;;6.10;94.80;;;;;;5099966;28;20213;-70
2021/03/02 08:40:55;;;;;;;51.63;29.60;;;6.30;92.90;;;;;;5089872;28;20493;-70
2021/03/02 08:43:26;;;;;;;46.80;29.13;;;6.50;93.50;;;;;;5098156;28;20206;-70
2021/03/02 08:46:00;;;;;;;56.90;31.95;;;6.60;92.10;;;;;;5095727;28;20194;-70
2021/03/02 08:48:42;;;;;;;41.53;29.50;;;6.90;92.20;;;;;;5080514;28;20211;-73
2021/03/02 08:51:12;;;;;;;51.97;28.13;;;7.40;91.90;;;;;;5092005;28;20230;-71
2021/03/02 08:53:43;;;;;;;46.17;30.00;;;7.80;90.70;;;;;;5087846;28;20544;-71
2021/03/02 08:56:17;;;;;;;46.60;28.95;;;7.90;89.30;;;;;;5091082;28;20203;-71
2021/03/02 08:58:54;;;;;;;49.28;30.45;;;8.10;89.70;;;;;;5090853;28;20449;-72
2021/03/02 09:01:39;;;;;;;39.92;27.60;;;7.90;87.60;;;;;;5095187;28;20362;-72
2021/03/02 09:04:20;;;;;;;49.38;30.33;;;7.40;89.30;;;;;;5096638;28;20548;-72
2021/03/02 09:06:51;;;;;;;46.03;29.02;;;7.20;91.20;;;;;;5097106;28;20221;-70
2021/03/02 09:09:22;;;;;;;48.20;29.65;;;7.80;92.20;;;;;;5094817;28;20248;-70
2021/03/02 09:11:52;;;;;;;45.38;30.27;;;7.10;91.00;;;;;;5088711;28;20539;-70
2021/03/02 09:14:23;;;;;;;55.78;32.42;;;7.60;89.40;;;;;;5085600;28;20254;-71
2021/03/02 09:16:50;;;;;;;57.45;34.97;;;8.10;89.30;;;;;;5097992;28;20207;-71
2021/03/02 09:19:21;;;;;;;50.88;32.65;;;8.40;89.50;;;;;;5097104;28;20207;-71
2021/03/02 09:21:51;;;;;;;56.70;36.33;;;8.90;87.50;;;;;;5085836;28;20509;-71
2021/03/02 09:24:56;;;;;;;63.28;37.85;;;8.80;84.70;;;;;;5093632;28;20217;-72
2021/03/02 09:27:32;;;;;;;54.80;35.45;;;9.30;83.00;;;;;;5094567;28;20199;-71
2021/03/02 09:29:59;;;;;;;54.65;32.95;;;9.10;84.30;;;;;;5104164;28;20249;-72
2021/03/02 09:32:29;;;;;;;59.75;34.47;;;8.90;84.90;;;;;;5108109;28;20206;-73
2021/03/02 09:34:59;;;;;;;46.67;32.15;;;9.00;84.90;;;;;;5091167;28;20280;-73
2021/03/02 09:37:27;;;;;;;55.88;33.75;;;9.30;84.50;;;;;;5100362;28;20269;-71
2021/03/02 09:40:02;;;;;;;53.08;33.75;;;9.20;82.80;;;;;;5098868;28;20210;-71
2021/03/02 09:42:32;;;;;;;50.90;33.88;;;8.60;84.50;;;;;;5097639;28;20198;-71
2021/03/02 09:45:09;;;;;;;55.60;36.47;;;8.40;86.30;;;;;;5089241;28;20200;-71
2021/03/02 09:47:37;;;;;;;54.40;35.30;;;8.50;87.30;;;;;;5090807;28;20290;-70
2021/03/02 09:50:14;;;;;;;55.90;34.10;;;8.50;87.80;;;;;;5086331;28;20203;-72
2021/03/02 09:52:45;;;;;;;52.45;34.60;;;8.50;88.10;;;;;;5092045;28;20218;-72
2021/03/02 09:55:18;;;;;;;62.08;35.17;;;9.00;88.80;;;;;;5090448;28;20258;-72
2021/03/02 09:58:15;;;;;;;72.85;42.90;;;8.00;90.00;;;;;;5094421;28;20565;-71
2021/03/02 10:00:54;;;;;;;65.75;38.78;;;7.80;90.60;;;;;;5085666;28;20300;-71
2021/03/02 10:03:34;;;;;;;62.42;35.70;;;7.60;91.10;;;;;;5099711;28;20323;-71
2021/03/02 10:06:04;;;;;;;54.13;36.13;;;7.60;91.00;;;;;;5083381;28;20233;-72
2021/03/02 10:08:41;;;;;;;59.75;33.60;;;7.40;91.30;;;;;;5106240;28;20549;-73
2021/03/02 10:11:11;;;;;;;58.60;37.70;;;7.50;91.60;;;;;;5083441;28;20310;-71
2021/03/02 10:13:45;;;;;;;66.15;38.40;;;7.50;91.40;;;;;;5086970;28;20234;-72
2021/03/02 10:16:30;;;;;;;58.88;39.70;;;7.30;91.90;;;;;;5089739;28;20214;-72
2021/03/02 10:19:11;;;;;;;56.28;37.53;;;7.00;92.70;;;;;;5085584;28;20522;-72
2021/03/02 10:21:48;;;;;;;58.53;35.17;;;7.00;92.70;;;;;;5081164;28;20207;-71
2021/03/02 10:24:31;;;;;;;69.47;41.17;;;7.00;92.60;;;;;;5084903;28;20207;-71
2021/03/02 10:27:09;;;;;;;63.63;38.03;;;7.10;92.60;;;;;;5083701;28;20211;-70
2021/03/02 10:29:38;;;;;;;54.55;34.15;;;7.00;92.80;;;;;;5083178;28;20308;-72
2021/03/02 10:32:09;;;;;;;55.35;37.25;;;7.10;93.00;;;;;;5092788;28;20556;-71
2021/03/02 10:34:43;;;;;;;56.70;37.58;;;7.20;92.60;;;;;;5086166;28;20214;-70
2021/03/02 10:37:12;;;;;;;58.20;38.55;;;7.20;92.60;;;;;;5098098;28;20194;-71
2021/03/02 10:39:41;;;;;;;63.78;39.13;;;7.30;92.60;;;;;;5097631;28;20198;-72
2021/03/02 10:42:11;;;;;;;60.55;37.47;;;7.20;93.10;;;;;;5098943;28;20308;-71
2021/03/02 10:44:38;;;;;;;68.03;38.50;;;7.20;93.00;;;;;;5097592;28;20221;-71
2021/03/02 10:47:14;;;;;;;67.18;37.70;;;7.40;93.00;;;;;;5097404;28;20248;-72
2021/03/02 10:49:41;;;;;;;53.58;34.58;;;7.50;92.60;;;;;;5098882;28;20210;-71
2021/03/02 10:52:07;;;;;;;68.80;35.22;;;7.60;92.60;;;;;;5099535;28;20270;-70
2021/03/02 10:54:40;;;;;;;54.10;32.80;;;7.80;92.10;;;;;;5098767;28;20230;-71
2021/03/02 10:57:10;;;;;;;51.40;34.75;;;7.70;92.50;;;;;;5098042;28;20202;-72
2021/03/02 10:59:37;;;;;;;56.33;35.75;;;7.80;92.50;;;;;;5098415;28;20345;-71
2021/03/02 11:02:04;;;;;;;58.00;32.90;;;8.00;92.30;;;;;;5097301;28;20233;-72
2021/03/02 11:04:35;;;;;;;59.78;35.15;;;7.80;92.40;;;;;;5098262;28;20215;-72
2021/03/02 11:07:02;;;;;;;52.67;36.60;;;8.00;92.00;;;;;;5098569;28;20218;-72
2021/03/02 11:09:29;;;;;;;58.08;36.15;;;8.10;92.20;;;;;;5096829;28;20390;-72
2021/03/02 11:11:56;;;;;;;53.20;36.38;;;8.10;91.90;;;;;;5098515;28;20277;-72
2021/03/02 11:14:23;;;;;;;61.97;39.08;;;8.20;91.60;;;;;;5098425;28;20224;-72
2021/03/02 11:16:49;;;;;;;61.30;40.72;;;8.30;91.60;;;;;;5083648;28;20390;-72
2021/03/02 11:19:16;;;;;;;60.97;39.05;;;8.30;91.80;;;;;;5079927;28;20210;-72
2021/03/02 11:21:43;;;;;;;60.28;41.25;;;8.40;91.40;;;;;;5082442;28;20207;-72
2021/03/02 11:24:10;;;;;;;59.50;40.67;;;8.50;91.10;;;;;;5083382;28;20208;-72
2021/03/02 11:26:36;;;;;;;58.28;36.78;;;8.70;90.90;;;;;;5081318;28;20359;-72
2021/03/02 11:29:03;;;;;;;60.15;39.30;;;8.70;90.70;;;;;;5084258;28;20271;-73
2021/03/02 11:31:30;;;;;;;59.33;41.55;;;8.80;90.50;;;;;;5084913;28;20378;-72
2021/03/02 11:33:57;;;;;;;58.78;39.60;;;8.90;90.40;;;;;;5084394;28;20253;-73
2021/03/02 11:36:27;;;;;;;64.18;41.00;;;9.00;90.20;;;;;;5098312;28;20230;-73
2021/03/02 11:38:57;;;;;;;62.50;41.17;;;8.30;90.10;;;;;;5096936;28;20220;-72
2021/03/02 11:41:23;;;;;;;66.55;42.45;;;9.00;90.40;;;;;;5100493;28;20397;-72
2021/03/02 11:43:50;;;;;;;65.40;41.80;;;9.20;90.40;;;;;;5088395;28;20203;-72
2021/03/02 11:46:17;;;;;;;65.47;40.45;;;9.50;89.30;;;;;;5100444;28;20208;-72
2021/03/02 11:48:44;;;;;;;60.88;39.92;;;9.60;89.10;;;;;;5099083;28;20418;-73
2021/03/02 11:51:10;;;;;;;67.70;39.55;;;9.50;88.10;;;;;;5100204;28;20585;-72
2021/03/02 11:53:37;;;;;;;59.70;40.55;;;9.40;88.10;;;;;;5098354;28;20206;-72
2021/03/02 11:56:04;;;;;;;68.55;40.20;;;9.50;88.10;;;;;;5099232;28;20228;-71
2021/03/02 11:58:30;;;;;;;62.20;37.95;;;9.50;88.00;;;;;;5096979;28;20220;-73
2021/03/02 12:00:57;;;;;;;56.95;37.67;;;9.70;86.90;;;;;;5100284;28;20204;-72
2021/03/02 12:03:25;;;;;;;53.40;37.00;;;9.70;87.00;;;;;;5098080;28;20242;-72
2021/03/02 12:05:52;;;;;;;58.45;36.67;;;9.70;86.60;;;;;;5099315;28;20414;-72
2021/03/02 12:08:24;;;;;;;57.17;37.30;;;9.70;86.90;;;;;;5099423;28;20309;-74
2021/03/02 12:10:50;;;;;;;54.58;37.03;;;9.80;86.50;;;;;;5098354;28;20211;-73
2021/03/02 12:13:21;;;;;;;62.10;39.47;;;10.00;84.40;;;;;;5099205;28;20241;-71
2021/03/02 12:15:48;;;;;;;56.75;36.78;;;9.90;85.20;;;;;;5095088;28;20241;-71
2021/03/02 12:18:15;;;;;;;58.55;37.28;;;9.90;85.90;;;;;;5085103;28;20214;-73
2021/03/02 12:20:42;;;;;;;56.63;36.30;;;10.00;85.50;;;;;;5088724;28;20222;-72
2021/03/02 12:23:09;;;;;;;55.40;36.13;;;10.00;83.90;;;;;;5087812;28;20206;-73
2021/03/02 12:25:36;;;;;;;53.35;35.58;;;10.20;82.90;;;;;;5090288;28;20643;-72
2021/03/02 12:28:03;;;;;;;62.45;35.88;;;10.00;83.10;;;;;;5084723;28;20282;-71
2021/03/02 12:30:29;;;;;;;55.08;35.95;;;10.10;82.20;;;;;;5087094;28;20209;-72
2021/03/02 12:32:56;;;;;;;56.08;36.22;;;10.10;82.10;;;;;;5087538;28;20250;-73
2021/03/02 12:35:24;;;;;;;57.65;37.25;;;10.00;82.70;;;;;;5094015;28;20263;-74
2021/03/02 12:37:50;;;;;;;56.17;33.92;;;9.90;82.90;;;;;;5099797;28;20272;-72
2021/03/02 12:40:18;;;;;;;57.67;36.20;;;10.00;82.70;;;;;;5100007;28;20209;-73
2021/03/02 12:42:44;;;;;;;60.40;35.97;;;10.10;82.40;;;;;;5101558;28;20515;-72
2021/03/02 12:45:12;;;;;;;54.50;32.78;;;10.30;81.80;;;;;;5099483;28;20201;-72